Time;durP1;ratioP1;P1;durP2;ratioP2;P2;SDS_P1;SDS_P2;PMS_P1;PMS_P2;Temp;Humidity;BMP_temperature;BMP_pressure;BME280_temperature;BME280_humidity;BME280_pressure;Samples;Min_cycle;Max_cycle;Signal;HPM_P1;HPM_P2
2023/08/22 00:01:07;;;;;;;13.75;9.18;;;;;;;;;;5034158;28;20053;-73
2023/08/22 00:03:33;;;;;;;10.02;8.93;;;;;;;;;;5033872;28;20022;-73
2023/08/22 00:05:59;;;;;;;10.25;9.00;;;;;;;;;;5033507;28;20021;-73
2023/08/22 00:08:25;;;;;;;11.50;9.70;;;;;;;;;;5029825;28;20109;-73
2023/08/22 00:10:51;;;;;;;10.43;9.30;;;;;;;;;;5033284;28;20464;-73
2023/08/22 00:13:17;;;;;;;12.35;8.32;;;;;;;;;;5033618;28;20018;-72
2023/08/22 00:15:43;;;;;;;11.68;9.48;;;;;;;;;;5033374;28;20030;-73
2023/08/22 00:18:09;;;;;;;9.60;8.57;;;;;;;;;;5032612;28;20389;-73
2023/08/22 00:20:36;;;;;;;9.80;8.50;;;;;;;;;;5033265;28;20033;-73
2023/08/22 00:23:03;;;;;;;10.98;9.55;;;;;;;;;;5033458;28;20040;-73
2023/08/22 00:25:29;;;;;;;10.50;8.93;;;;;;;;;;5033169;28;20029;-73
2023/08/22 00:27:55;;;;;;;14.95;9.60;;;;;;;;;;5032401;28;20096;-73
2023/08/22 00:30:21;;;;;;;10.52;9.45;;;;;;;;;;5033247;28;20113;-74
2023/08/22 00:32:47;;;;;;;10.07;8.93;;;;;;;;;;5031922;28;20029;-74
2023/08/22 00:35:13;;;;;;;10.48;9.23;;;;;;;;;;5033060;28;20080;-74
2023/08/22 00:37:40;;;;;;;10.75;8.38;;;;;;;;;;5032285;28;20497;-74
2023/08/22 00:40:06;;;;;;;11.25;9.00;;;;;;;;;;5032961;28;20017;-74
2023/08/22 00:42:32;;;;;;;10.38;8.30;;;;;;;;;;5032889;28;20555;-75
2023/08/22 00:44:59;;;;;;;10.93;8.13;;;;;;;;;;5032957;28;20101;-75
2023/08/22 00:47:25;;;;;;;10.75;9.18;;;;;;;;;;5032115;28;20076;-74
2023/08/22 00:49:51;;;;;;;11.05;8.40;;;;;;;;;;5032636;28;20093;-73
2023/08/22 00:52:17;;;;;;;11.05;9.25;;;;;;;;;;5032787;28;20021;-73
2023/08/22 00:54:44;;;;;;;10.45;9.05;;;;;;;;;;5034995;28;20028;-73
2023/08/22 00:57:10;;;;;;;11.02;9.45;;;;;;;;;;5037867;28;20021;-74
2023/08/22 00:59:37;;;;;;;10.75;8.75;;;;;;;;;;5032635;28;20028;-73
2023/08/22 01:02:04;;;;;;;11.95;9.30;;;;;;;;;;5032573;28;20032;-73
2023/08/22 01:04:30;;;;;;;13.07;10.27;;;;;;;;;;5031489;28;20009;-73
2023/08/22 01:06:59;;;;;;;10.45;9.35;;;;;;;;;;5029125;28;20079;-74
2023/08/22 01:09:28;;;;;;;10.40;9.40;;;;;;;;;;5031578;28;20028;-73
2023/08/22 01:11:58;;;;;;;11.57;9.70;;;;;;;;;;5032279;28;20052;-72
2023/08/22 01:14:27;;;;;;;10.82;9.52;;;;;;;;;;5032295;28;20380;-72
2023/08/22 01:16:53;;;;;;;11.50;9.32;;;;;;;;;;5032097;28;20496;-76
2023/08/22 01:19:20;;;;;;;11.05;9.15;;;;;;;;;;5014363;28;20028;-73
2023/08/22 01:21:50;;;;;;;11.15;9.93;;;;;;;;;;5029563;28;20034;-73
2023/08/22 01:24:16;;;;;;;10.95;9.70;;;;;;;;;;5029346;28;20428;-73
2023/08/22 01:26:43;;;;;;;15.50;10.20;;;;;;;;;;5024762;28;20370;-73
2023/08/22 01:29:11;;;;;;;12.50;9.50;;;;;;;;;;5020547;28;20445;-73
2023/08/22 01:32:12;;;;;;;12.98;10.10;;;;;;;;;;5035642;28;20063;-73
2023/08/22 01:34:39;;;;;;;13.13;10.73;;;;;;;;;;4953023;28;20043;-74
2023/08/22 01:37:07;;;;;;;11.57;10.38;;;;;;;;;;5016250;28;20163;-73
2023/08/22 01:39:33;;;;;;;14.18;11.50;;;;;;;;;;5030626;28;20021;-73
2023/08/22 01:42:00;;;;;;;13.73;11.10;;;;;;;;;;5031820;28;20017;-73
2023/08/22 01:44:28;;;;;;;11.85;10.23;;;;;;;;;;5031908;28;20049;-73
2023/08/22 01:46:54;;;;;;;15.93;11.25;;;;;;;;;;5031512;28;20017;-73
2023/08/22 01:49:20;;;;;;;11.40;10.20;;;;;;;;;;5031221;28;20013;-73
2023/08/22 01:51:46;;;;;;;13.18;10.32;;;;;;;;;;5030655;28;20021;-73
2023/08/22 01:54:12;;;;;;;11.88;10.68;;;;;;;;;;5013759;28;20021;-73
2023/08/22 01:56:38;;;;;;;12.40;10.25;;;;;;;;;;5015054;28;20076;-77
2023/08/22 01:59:04;;;;;;;11.32;10.13;;;;;;;;;;5037459;28;20053;-73
2023/08/22 02:01:30;;;;;;;13.13;10.35;;;;;;;;;;5031906;28;20104;-73
2023/08/22 02:04:01;;;;;;;12.02;10.68;;;;;;;;;;5031636;28;20595;-73
2023/08/22 02:06:27;;;;;;;;;;;;;;;;;;5028962;28;20045;-72
2023/08/22 02:08:53;;;;;;;;;;;;;;;;;;5031956;28;20368;-74
2023/08/22 02:11:19;;;;;;;;;;;;;;;;;;5032406;28;19909;-73
2023/08/22 02:13:45;;;;;;;;;;;;;;;;;;5032461;28;19928;-74
2023/08/22 02:16:11;;;;;;;;;;;;;;;;;;5026961;28;19927;-75
2023/08/22 02:18:37;;;;;;;;;;;;;;;;;;5029280;28;19909;-72
2023/08/22 02:21:02;;;;;;;;;;;;;;;;;;5031377;28;20072;-73
2023/08/22 02:23:29;;;;;;;;;;;;;;;;;;5031505;28;19996;-74
2023/08/22 02:25:55;;;;;;;;;;;;;;;;;;5031040;28;19992;-73
2023/08/22 02:28:21;;;;;;;;;;;;;;;;;;5038098;28;19904;-73
2023/08/22 02:30:46;;;;;;;;;;;;;;;;;;5051463;28;19912;-73
2023/08/22 02:33:12;;;;;;;;;;;;;;;;;;5051725;28;20008;-74
2023/08/22 02:35:39;;;;;;;;;;;;;;;;;;5014220;28;20387;-74
2023/08/22 02:38:05;;;;;;;;;;;;;;;;;;5024825;28;19905;-74
2023/08/22 02:40:31;;;;;;;;;;;;;;;;;;5040329;28;19905;-74
2023/08/22 02:42:57;;;;;;;;;;;;;;;;;;5051257;28;19905;-73
2023/08/22 02:45:23;;;;;;;;;;;;;;;;;;5042909;28;19908;-73
2023/08/22 02:47:49;;;;;;;;;;;;;;;;;;5047569;28;19905;-73
2023/08/22 02:50:15;;;;;;;;;;;;;;;;;;5031465;28;19920;-74
2023/08/22 02:52:41;;;;;;;;;;;;;;;;;;5031179;28;19905;-74
2023/08/22 02:57:46;;;;;;;;;;;;;;;;;;5009268;28;19921;-74
2023/08/22 03:00:12;;;;;;;;;;;;;;;;;;4994167;28;19968;-74
2023/08/22 03:02:38;;;;;;;;;;;;;;;;;;5011562;28;19992;-75
2023/08/22 03:05:07;;;;;;;;;;;;;;;;;;4994146;28;20294;-75
2023/08/22 03:07:32;;;;;;;;;;;;;;;;;;5007512;28;19917;-74
2023/08/22 03:09:58;;;;;;;;;;;;;;;;;;5011335;28;19913;-75
2023/08/22 03:12:24;;;;;;;;;;;;;;;;;;5011884;28;19906;-76
2023/08/22 03:14:50;;;;;;;;;;;;;;;;;;4994047;28;20364;-76
2023/08/22 03:17:16;;;;;;;;;;;;;;;;;;5010961;28;19905;-76
2023/08/22 03:19:42;;;;;;;;;;;;;;;;;;5011705;28;19945;-76
2023/08/22 03:22:08;;;;;;;;;;;;;;;;;;5011271;28;19912;-75
2023/08/22 03:24:34;;;;;;;;;;;;;;;;;;5011286;28;19905;-75
2023/08/22 03:27:00;;;;;;;;;;;;;;;;;;5011211;28;19963;-76
2023/08/22 03:29:26;;;;;;;;;;;;;;;;;;5011111;28;20380;-76
2023/08/22 03:31:52;;;;;;;;;;;;;;;;;;5027448;28;19919;-76
2023/08/22 03:34:18;;;;;;;;;;;;;;;;;;5014961;28;19909;-76
2023/08/22 03:36:44;;;;;;;;;;;;;;;;;;5005508;28;19906;-75
2023/08/22 03:39:10;;;;;;;;;;;;;;;;;;5015834;28;19906;-76
2023/08/22 03:41:36;;;;;;;;;;;;;;;;;;5015268;28;20369;-76
2023/08/22 03:44:02;;;;;;;;;;;;;;;;;;5015140;28;19906;-76
2023/08/22 03:46:28;;;;;;;;;;;;;;;;;;4997380;28;19906;-75
2023/08/22 03:48:54;;;;;;;;;;;;;;;;;;4996923;28;19996;-76
2023/08/22 03:51:20;;;;;;;;;;;;;;;;;;5015061;28;19913;-76
2023/08/22 03:53:46;;;;;;;;;;;;;;;;;;5017397;28;19909;-76
2023/08/22 03:56:12;;;;;;;;;;;;;;;;;;5006426;28;19917;-76
2023/08/22 03:58:38;;;;;;;;;;;;;;;;;;5014238;28;19932;-76
2023/08/22 04:01:04;;;;;;;;;;;;;;;;;;5023597;28;19913;-76
2023/08/22 04:03:30;;;;;;;;;;;;;;;;;;5015198;28;19948;-76
2023/08/22 04:05:57;;;;;;;;;;;;;;;;;;5013590;28;20338;-77
2023/08/22 04:08:23;;;;;;;;;;;;;;;;;;5009976;28;20028;-76
2023/08/22 04:10:49;;;;;;;;;;;;;;;;;;5015559;28;20067;-76
2023/08/22 04:13:15;;;;;;;;;;;;;;;;;;5023023;28;19996;-75
2023/08/22 04:15:41;;;;;;;;;;;;;;;;;;5014285;28;19906;-76
2023/08/22 04:18:07;;;;;;;;;;;;;;;;;;5014171;28;19905;-74
2023/08/22 04:20:33;;;;;;;;;;;;;;;;;;5015330;28;20392;-75
2023/08/22 04:22:59;;;;;;;;;;;;;;;;;;5030198;28;19949;-76
2023/08/22 04:25:25;;;;;;;;;;;;;;;;;;5014440;28;19936;-76
2023/08/22 04:27:50;;;;;;;;;;;;;;;;;;5015126;28;19952;-76
2023/08/22 04:30:16;;;;;;;;;;;;;;;;;;5014279;28;20406;-76
2023/08/22 04:32:42;;;;;;;;;;;;;;;;;;5014201;28;19905;-76
2023/08/22 04:35:08;;;;;;;;;;;;;;;;;;5014053;28;19906;-75
2023/08/22 04:37:34;;;;;;;;;;;;;;;;;;5013661;28;19906;-75
2023/08/22 04:40:00;;;;;;;;;;;;;;;;;;5014152;28;20404;-75
2023/08/22 04:42:26;;;;;;;;;;;;;;;;;;5013876;28;19906;-76
2023/08/22 04:44:52;;;;;;;;;;;;;;;;;;5012032;28;20327;-76
2023/08/22 04:47:18;;;;;;;;;;;;;;;;;;5013608;28;19905;-75
2023/08/22 04:49:44;;;;;;;;;;;;;;;;;;5013740;28;19967;-75
2023/08/22 04:52:09;;;;;;;;;;;;;;;;;;5012322;28;20403;-75
2023/08/22 04:54:35;;;;;;;;;;;;;;;;;;5012201;28;19920;-77
2023/08/22 04:57:01;;;;;;;;;;;;;;;;;;5013208;28;20001;-76
2023/08/22 04:59:27;;;;;;;;;;;;;;;;;;5013112;28;19932;-77
2023/08/22 05:01:53;;;;;;;;;;;;;;;;;;5013216;28;19933;-76
2023/08/22 05:04:19;;;;;;;;;;;;;;;;;;5013202;28;20020;-76
2023/08/22 05:06:45;;;;;;;;;;;;;;;;;;5009404;28;19906;-74
2023/08/22 05:09:11;;;;;;;;;;;;;;;;;;5027030;28;20373;-76
2023/08/22 05:11:37;;;;;;;;;;;;;;;;;;5015979;28;19933;-76
2023/08/22 05:14:03;;;;;;;;;;;;;;;;;;5018002;28;19905;-75
2023/08/22 05:16:29;;;;;;;;;;;;;;;;;;4998590;28;19905;-74
2023/08/22 05:18:55;;;;;;;;;;;;;;;;;;5012567;28;20284;-74
2023/08/22 05:21:21;;;;;;;;;;;;;;;;;;5013017;28;19916;-75
2023/08/22 05:23:47;;;;;;;;;;;;;;;;;;4992380;28;20281;-76
2023/08/22 05:26:13;;;;;;;;;;;;;;;;;;5007681;28;19916;-76
2023/08/22 05:28:39;;;;;;;;;;;;;;;;;;5004309;28;19992;-75
2023/08/22 05:31:05;;;;;;;;;;;;;;;;;;5012599;28;20428;-76
2023/08/22 05:33:31;;;;;;;;;;;;;;;;;;5012990;28;19999;-75
2023/08/22 05:35:57;;;;;;;;;;;;;;;;;;5016500;28;20003;-76
2023/08/22 05:38:23;;;;;;;;;;;;;;;;;;5016389;28;20000;-74
2023/08/22 05:40:49;;;;;;;;;;;;;;;;;;5013132;28;19909;-75
2023/08/22 05:43:15;;;;;;;;;;;;;;;;;;5013065;28;19932;-76
2023/08/22 05:45:41;;;;;;;;;;;;;;;;;;5012658;28;19996;-75
2023/08/22 05:48:07;;;;;;;;;;;;;;;;;;5011865;28;19905;-74
2023/08/22 05:50:33;;;;;;;;;;;;;;;;;;5010675;28;19913;-75
2023/08/22 05:52:59;;;;;;;;;;;;;;;;;;5012263;28;19912;-75
2023/08/22 05:55:25;;;;;;;;;;;;;;;;;;5011995;28;19909;-74
2023/08/22 05:57:51;;;;;;;;;;;;;;;;;;5011118;28;19913;-74
2023/08/22 06:00:17;;;;;;;;;;;;;;;;;;5012402;28;19910;-73
2023/08/22 06:02:43;;;;;;;;;;;;;;;;;;5014540;28;19905;-77
2023/08/22 06:05:09;;;;;;;;;;;;;;;;;;5026463;28;19910;-75
2023/08/22 06:07:35;;;;;;;;;;;;;;;;;;5009420;28;19909;-76
2023/08/22 06:10:01;;;;;;;;;;;;;;;;;;5032384;28;20300;-76
2023/08/22 06:12:26;;;;;;;;;;;;;;;;;;5015791;28;19936;-76
2023/08/22 06:14:52;;;;;;;;;;;;;;;;;;5012010;28;19906;-76
2023/08/22 06:17:18;;;;;;;;;;;;;;;;;;5026478;28;19962;-76
2023/08/22 06:19:44;;;;;;;;;;;;;;;;;;5015037;28;19909;-77
2023/08/22 06:22:10;;;;;;;;;;;;;;;;;;5023316;28;20002;-76
2023/08/22 06:24:36;;;;;;;;;;;;;;;;;;5011946;28;20355;-76
2023/08/22 06:27:02;;;;;;;;;;;;;;;;;;5008735;28;20335;-74
2023/08/22 06:29:28;;;;;;;;;;;;;;;;;;5011479;28;19933;-74
2023/08/22 06:31:54;;;;;;;;;;;;;;;;;;5011209;28;20024;-76
2023/08/22 06:34:20;;;;;;;;;;;;;;;;;;5007502;28;20000;-77
2023/08/22 06:36:46;;;;;;;;;;;;;;;;;;5010701;28;19960;-77
2023/08/22 06:39:12;;;;;;;;;;;;;;;;;;5010920;28;19910;-76
2023/08/22 06:41:38;;;;;;;;;;;;;;;;;;5004881;28;19913;-77
2023/08/22 06:44:09;;;;;;;;;;;;;;;;;;5011554;28;19905;-77
2023/08/22 06:46:35;;;;;;;;;;;;;;;;;;5010913;28;20003;-76
2023/08/22 06:49:00;;;;;;;;;;;;;;;;;;5010274;28;20353;-77
2023/08/22 06:51:26;;;;;;;;;;;;;;;;;;5010069;28;19909;-76
2023/08/22 06:53:52;;;;;;;;;;;;;;;;;;5010257;28;19905;-76
2023/08/22 06:56:18;;;;;;;;;;;;;;;;;;5024711;28;19982;-76
2023/08/22 06:58:44;;;;;;;;;;;;;;;;;;5026529;28;20380;-77
2023/08/22 07:01:10;;;;;;;;;;;;;;;;;;5009720;28;20043;-77
2023/08/22 07:03:36;;;;;;;;;;;;;;;;;;4993078;28;20067;-75
2023/08/22 07:06:02;;;;;;;;;;;;;;;;;;4997917;28;20000;-77
2023/08/22 07:08:28;;;;;;;;;;;;;;;;;;5024003;28;19905;-77
2023/08/22 07:10:54;;;;;;;;;;;;;;;;;;4998789;28;19914;-77
2023/08/22 07:13:20;;;;;;;;;;;;;;;;;;5011186;28;19916;-77
2023/08/22 07:15:45;;;;;;;;;;;;;;;;;;4995810;28;19909;-77
2023/08/22 07:18:11;;;;;;;;;;;;;;;;;;5017493;28;19991;-76
2023/08/22 07:20:37;;;;;;;;;;;;;;;;;;5020127;28;20004;-76
2023/08/22 07:23:03;;;;;;;;;;;;;;;;;;5016647;28;19905;-76
2023/08/22 07:25:29;;;;;;;;;;;;;;;;;;5008264;28;20368;-76
2023/08/22 07:27:55;;;;;;;;;;;;;;;;;;5010690;28;19905;-76
2023/08/22 07:30:21;;;;;;;;;;;;;;;;;;5010818;28;19936;-76
2023/08/22 07:32:47;;;;;;;;;;;;;;;;;;5010869;28;19912;-75
2023/08/22 07:35:13;;;;;;;;;;;;;;;;;;5008019;28;19929;-75
2023/08/22 07:37:39;;;;;;;;;;;;;;;;;;4975602;28;19913;-76
2023/08/22 07:40:05;;;;;;;;;;;;;;;;;;5004726;28;19913;-75
2023/08/22 07:42:30;;;;;;;;;;;;;;;;;;5009098;28;19909;-75
2023/08/22 07:44:56;;;;;;;;;;;;;;;;;;5009015;28;19905;-74
2023/08/22 07:47:22;;;;;;;;;;;;;;;;;;5015705;28;19928;-76
2023/08/22 07:49:48;;;;;;;;;;;;;;;;;;5008825;28;20273;-74
2023/08/22 07:52:14;;;;;;;;;;;;;;;;;;5004591;28;19916;-75
2023/08/22 07:54:40;;;;;;;;;;;;;;;;;;5011911;28;19953;-76
2023/08/22 07:57:06;;;;;;;;;;;;;;;;;;5010605;28;19913;-76
2023/08/22 07:59:32;;;;;;;;;;;;;;;;;;5008686;28;19905;-75
2023/08/22 08:01:58;;;;;;;;;;;;;;;;;;5006316;28;19984;-75
2023/08/22 08:04:24;;;;;;;;;;;;;;;;;;5009312;28;20288;-76
2023/08/22 08:06:50;;;;;;;;;;;;;;;;;;5004928;28;19995;-76
2023/08/22 08:09:16;;;;;;;;;;;;;;;;;;5008439;28;20387;-76
2023/08/22 08:11:41;;;;;;;;;;;;;;;;;;5003932;28;20264;-76
2023/08/22 08:14:07;;;;;;;;;;;;;;;;;;5009980;28;19959;-76
2023/08/22 08:16:34;;;;;;;;;;;;;;;;;;5010222;28;19999;-76
2023/08/22 08:19:00;;;;;;;;;;;;;;;;;;5010184;28;19984;-76
2023/08/22 08:21:26;;;;;;;;;;;;;;;;;;5013235;28;19996;-76
2023/08/22 08:23:52;;;;;;;;;;;;;;;;;;5013969;28;20292;-77
2023/08/22 08:26:18;;;;;;;;;;;;;;;;;;5014645;28;20399;-77
2023/08/22 08:28:44;;;;;;;;;;;;;;;;;;5013265;28;20365;-76
2023/08/22 08:31:10;;;;;;;;;;;;;;;;;;5013923;28;19924;-76
2023/08/22 08:33:36;;;;;;;;;;;;;;;;;;5014176;28;20359;-76
2023/08/22 08:36:03;;;;;;;;;;;;;;;;;;5011952;28;19952;-77
2023/08/22 08:38:29;;;;;;;;;;;;;;;;;;5004507;28;19948;-77
2023/08/22 08:40:55;;;;;;;;;;;;;;;;;;5012997;28;19952;-77
2023/08/22 08:43:21;;;;;;;;;;;;;;;;;;5013678;28;19996;-77
2023/08/22 08:45:47;;;;;;;;;;;;;;;;;;5013787;28;19905;-77
2023/08/22 08:48:13;;;;;;;;;;;;;;;;;;5013023;28;19909;-77
2023/08/22 08:50:39;;;;;;;;;;;;;;;;;;5013691;28;19909;-76
2023/08/22 08:53:05;;;;;;;;;;;;;;;;;;5012672;28;20288;-77
2023/08/22 08:55:31;;;;;;;;;;;;;;;;;;5013445;28;19909;-77
2023/08/22 08:57:57;;;;;;;;;;;;;;;;;;5014020;28;19909;-79
2023/08/22 09:00:22;;;;;;;;;;;;;;;;;;5013841;28;19905;-79
2023/08/22 09:02:48;;;;;;;;;;;;;;;;;;5013218;28;20467;-78
2023/08/22 09:05:14;;;;;;;;;;;;;;;;;;5001588;28;19917;-78
2023/08/22 09:07:40;;;;;;;;;;;;;;;;;;5005859;28;19913;-79
2023/08/22 09:10:06;;;;;;;;;;;;;;;;;;5013383;28;19905;-79
2023/08/22 09:12:33;;;;;;;;;;;;;;;;;;5010730;28;20324;-79
2023/08/22 09:14:59;;;;;;;;;;;;;;;;;;5011805;28;20321;-78
2023/08/22 09:17:25;;;;;;;;;;;;;;;;;;5013353;28;19905;-79
2023/08/22 09:19:51;;;;;;;;;;;;;;;;;;5008679;28;20318;-79
2023/08/22 09:22:17;;;;;;;;;;;;;;;;;;5012838;28;19910;-79
2023/08/22 09:24:42;;;;;;;;;;;;;;;;;;5011291;28;19912;-77
2023/08/22 09:27:08;;;;;;;;;;;;;;;;;;5010406;28;19905;-77
2023/08/22 09:29:34;;;;;;;;;;;;;;;;;;5011047;28;20404;-77
2023/08/22 09:32:00;;;;;;;;;;;;;;;;;;5010659;28;19909;-77
2023/08/22 09:34:26;;;;;;;;;;;;;;;;;;5011599;28;19912;-77
2023/08/22 09:36:53;;;;;;;;;;;;;;;;;;5011545;28;19915;-77
2023/08/22 09:39:19;;;;;;;;;;;;;;;;;;5012322;28;19992;-77
2023/08/22 09:41:45;;;;;;;;;;;;;;;;;;5008757;28;19912;-77
2023/08/22 09:44:11;;;;;;;;;;;;;;;;;;4984123;28;19909;-78
2023/08/22 09:46:37;;;;;;;;;;;;;;;;;;5007761;28;19925;-77
2023/08/22 09:49:03;;;;;;;;;;;;;;;;;;5010971;28;19905;-75
2023/08/22 09:51:29;;;;;;;;;;;;;;;;;;5012378;28;19971;-76
2023/08/22 09:54:03;;;;;;;;;;;;;;;;;;5012539;28;20357;-75
2023/08/22 09:56:29;;;;;;;;;;;;;;;;;;5011872;28;19956;-76
2023/08/22 09:58:55;;;;;;;;;;;;;;;;;;5011709;28;19936;-76
2023/08/22 10:01:21;;;;;;;;;;;;;;;;;;5012438;28;19999;-76
2023/08/22 10:03:47;;;;;;;;;;;;;;;;;;4994379;28;20412;-76
2023/08/22 10:06:13;;;;;;;;;;;;;;;;;;4993067;28;19905;-76
2023/08/22 10:08:39;;;;;;;;;;;;;;;;;;5009286;28;19913;-75
2023/08/22 10:11:05;;;;;;;;;;;;;;;;;;5012039;28;19914;-76
2023/08/22 10:13:31;;;;;;;;;;;;;;;;;;5012034;28;19952;-76
2023/08/22 10:15:57;;;;;;;;;;;;;;;;;;5012058;28;20004;-78
2023/08/22 10:18:23;;;;;;;;;;;;;;;;;;4998295;28;19906;-77
2023/08/22 10:20:49;;;;;;;;;;;;;;;;;;5002411;28;19955;-78
2023/08/22 10:23:15;;;;;;;;;;;;;;;;;;5006639;28;19906;-78
2023/08/22 10:25:40;;;;;;;;;;;;;;;;;;5007440;28;19913;-77
2023/08/22 10:28:06;;;;;;;;;;;;;;;;;;5011037;28;19980;-77
2023/08/22 10:30:33;;;;;;;;;;;;;;;;;;5011503;28;19929;-77
2023/08/22 10:32:59;;;;;;;;;;;;;;;;;;5011519;28;19912;-78
2023/08/22 10:35:25;;;;;;;;;;;;;;;;;;5011629;28;19992;-77
2023/08/22 10:37:51;;;;;;;;;;;;;;;;;;4993051;28;20392;-78
2023/08/22 10:40:17;;;;;;;;;;;;;;;;;;5010418;28;19996;-78
2023/08/22 10:42:43;;;;;;;;;;;;;;;;;;4992556;28;19949;-79
2023/08/22 10:45:09;;;;;;;;;;;;;;;;;;5013353;28;19988;-80
2023/08/22 10:47:35;;;;;;;;;;;;;;;;;;4995148;28;19909;-78
2023/08/22 10:50:00;;;;;;;;;;;;;;;;;;5011474;28;20615;-79
2023/08/22 10:52:26;;;;;;;;;;;;;;;;;;4993797;28;19906;-78
2023/08/22 10:54:52;;;;;;;;;;;;;;;;;;5011677;28;19905;-79
2023/08/22 10:57:18;;;;;;;;;;;;;;;;;;5017173;28;19924;-78
2023/08/22 10:59:44;;;;;;;;;;;;;;;;;;5012938;28;19906;-79
2023/08/22 11:02:13;;;;;;;;;;;;;;;;;;5011389;28;19905;-78
2023/08/22 11:04:38;;;;;;;;;;;;;;;;;;4992483;28;19956;-78
2023/08/22 11:07:04;;;;;;;;;;;;;;;;;;5003059;28;20004;-77
2023/08/22 11:09:30;;;;;;;;;;;;;;;;;;5003950;28;20641;-78
2023/08/22 11:11:56;;;;;;;;;;;;;;;;;;5005875;28;19963;-78
2023/08/22 11:14:22;;;;;;;;;;;;;;;;;;5002978;28;19905;-78
2023/08/22 11:16:48;;;;;;;;;;;;;;;;;;5009600;28;19913;-77
2023/08/22 11:19:14;;;;;;;;;;;;;;;;;;5010248;28;19905;-77
2023/08/22 11:21:40;;;;;;;;;;;;;;;;;;5020413;28;19920;-76
2023/08/22 11:24:06;;;;;;;;;;;;;;;;;;5032350;28;19927;-75
2023/08/22 11:26:31;;;;;;;;;;;;;;;;;;5037469;28;19905;-74
2023/08/22 11:28:57;;;;;;;;;;;;;;;;;;5035715;28;19905;-75
2023/08/22 11:31:23;;;;;;;;;;;;;;;;;;5033161;28;19916;-76
2023/08/22 11:33:49;;;;;;;;;;;;;;;;;;5031578;28;19906;-76
2023/08/22 11:36:15;;;;;;;;;;;;;;;;;;5031811;28;19905;-75
2023/08/22 11:38:42;;;;;;;;;;;;;;;;;;5030742;28;20284;-76
2023/08/22 11:41:08;;;;;;;;;;;;;;;;;;5001878;28;20217;-76
2023/08/22 11:43:33;;;;;;;;;;;;;;;;;;5003986;28;19929;-75
2023/08/22 11:46:03;;;;;;;;;;;;;;;;;;4974384;28;20366;-75
2023/08/22 11:48:29;;;;;;;;;;;;;;;;;;4991003;28;20036;-75
2023/08/22 11:50:55;;;;;;;;;;;;;;;;;;5006308;28;20020;-75
2023/08/22 11:53:21;;;;;;;;;;;;;;;;;;5011133;28;19915;-75
2023/08/22 11:55:49;;;;;;;;;;;;;;;;;;5013800;28;19910;-76
2023/08/22 11:58:17;;;;;;;;;;;;;;;;;;5012523;28;19905;-74
2023/08/22 12:00:43;;;;;;;;;;;;;;;;;;5013044;28;19951;-75
2023/08/22 12:03:09;;;;;;;;;;;;;;;;;;5013243;28;19909;-75
2023/08/22 12:05:35;;;;;;;;;;;;;;;;;;5013298;28;19959;-76
2023/08/22 12:08:01;;;;;;;;;;;;;;;;;;5012372;28;19945;-75
2023/08/22 12:10:27;;;;;;;;;;;;;;;;;;5013100;28;19909;-75
2023/08/22 12:12:53;;;;;;;;;;;;;;;;;;5014657;28;19959;-76
2023/08/22 12:15:19;;;;;;;;;;;;;;;;;;5014515;28;19909;-76
2023/08/22 12:17:45;;;;;;;;;;;;;;;;;;5011915;28;19928;-74
2023/08/22 12:20:11;;;;;;;;;;;;;;;;;;4993729;28;19909;-74
2023/08/22 12:22:37;;;;;;;;;;;;;;;;;;4993759;28;19960;-75
2023/08/22 12:25:03;;;;;;;;;;;;;;;;;;4994657;28;19955;-75
2023/08/22 12:27:29;;;;;;;;;;;;;;;;;;4994186;28;19913;-75
2023/08/22 12:29:55;;;;;;;;;;;;;;;;;;4994519;28;19901;-75
2023/08/22 12:32:21;;;;;;;;;;;;;;;;;;4994420;28;19929;-75
2023/08/22 12:34:46;;;;;;;;;;;;;;;;;;4994639;28;20283;-75
2023/08/22 12:37:12;;;;;;;;;;;;;;;;;;4994178;28;20000;-75
2023/08/22 12:39:38;;;;;;;;;;;;;;;;;;4994945;28;20377;-75
2023/08/22 12:42:04;;;;;;;;;;;;;;;;;;4994579;28;19912;-76
2023/08/22 12:44:31;;;;;;;;;;;;;;;;;;4994568;28;19906;-76
2023/08/22 12:46:59;;;;;;;;;;;;;;;;;;4994200;28;19906;-76
2023/08/22 12:49:25;;;;;;;;;;;;;;;;;;4994161;28;19909;-76
2023/08/22 12:51:51;;;;;;;;;;;;;;;;;;4994438;28;19929;-76
2023/08/22 12:54:17;;;;;;;;;;;;;;;;;;4995882;28;19984;-76
2023/08/22 12:56:43;;;;;;;;;;;;;;;;;;4984116;28;19964;-76
2023/08/22 12:59:09;;;;;;;;;;;;;;;;;;4993712;28;19960;-76
2023/08/22 13:01:35;;;;;;;;;;;;;;;;;;4992929;28;19910;-76
2023/08/22 13:04:01;;;;;;;;;;;;;;;;;;4994212;28;19909;-77
2023/08/22 13:06:26;;;;;;;;;;;;;;;;;;4993819;28;19906;-75
2023/08/22 13:08:54;;;;;;;;;;;;;;;;;;4993406;28;19932;-75
2023/08/22 13:11:20;;;;;;;;;;;;;;;;;;4993968;28;19935;-76
2023/08/22 13:13:46;;;;;;;;;;;;;;;;;;4994268;28;20000;-73
2023/08/22 13:16:12;;;;;;;;;;;;;;;;;;4994938;28;20362;-75
2023/08/22 13:18:38;;;;;;;;;;;;;;;;;;4993336;28;19992;-76
2023/08/22 13:21:04;;;;;;;;;;;;;;;;;;4992601;28;19912;-75
2023/08/22 13:23:30;;;;;;;;;;;;;;;;;;4993756;28;19905;-75
2023/08/22 13:25:56;;;;;;;;;;;;;;;;;;4993812;28;20360;-75
2023/08/22 13:28:22;;;;;;;;;;;;;;;;;;4993191;28;19952;-76
2023/08/22 13:30:48;;;;;;;;;;;;;;;;;;4993337;28;19938;-74
2023/08/22 13:33:14;;;;;;;;;;;;;;;;;;4992690;28;19960;-75
2023/08/22 13:35:40;;;;;;;;;;;;;;;;;;4994530;28;19910;-74
2023/08/22 13:38:06;;;;;;;;;;;;;;;;;;4992864;28;19948;-75
2023/08/22 13:40:31;;;;;;;;;;;;;;;;;;4993522;28;19906;-76
2023/08/22 13:42:58;;;;;;;;;;;;;;;;;;4993315;28;19910;-76
2023/08/22 13:45:24;;;;;;;;;;;;;;;;;;4993387;28;19906;-76
2023/08/22 13:47:54;;;;;;;;;;;;;;;;;;4993378;28;19959;-76
2023/08/22 13:50:20;;;;;;;;;;;;;;;;;;4993572;28;19914;-75
2023/08/22 13:52:46;;;;;;;;;;;;;;;;;;4996806;28;19906;-78
2023/08/22 13:55:12;;;;;;;;;;;;;;;;;;4993200;28;19906;-77
2023/08/22 13:57:38;;;;;;;;;;;;;;;;;;4992403;28;19920;-76
2023/08/22 14:00:04;;;;;;;;;;;;;;;;;;4993546;28;20493;-75
2023/08/22 14:02:30;;;;;;;;;;;;;;;;;;4992302;28;19905;-76
2023/08/22 14:04:56;;;;;;;;;;;;;;;;;;4990763;28;19906;-77
2023/08/22 14:07:21;;;;;;;;;;;;;;;;;;4990684;28;19942;-75
2023/08/22 14:09:47;;;;;;;;;;;;;;;;;;4991119;28;19929;-75
2023/08/22 14:12:14;;;;;;;;;;;;;;;;;;4991214;28;19962;-77
2023/08/22 14:14:40;;;;;;;;;;;;;;;;;;4992791;28;20029;-76
2023/08/22 14:17:06;;;;;;;;;;;;;;;;;;4991996;28;19906;-75
2023/08/22 14:19:32;;;;;;;;;;;;;;;;;;4992856;28;19913;-78
2023/08/22 14:21:58;;;;;;;;;;;;;;;;;;4992813;28;19906;-76
2023/08/22 14:24:24;;;;;;;;;;;;;;;;;;4992828;28;19913;-75
2023/08/22 14:26:50;;;;;;;;;;;;;;;;;;4992617;28;20365;-77
2023/08/22 14:29:16;;;;;;;;;;;;;;;;;;4992455;28;20008;-76
2023/08/22 14:31:42;;;;;;;;;;;;;;;;;;4992926;28;19917;-75
2023/08/22 14:34:08;;;;;;;;;;;;;;;;;;4975242;28;20266;-76
2023/08/22 14:36:34;;;;;;;;;;;;;;;;;;4992324;28;19906;-76
2023/08/22 14:39:00;;;;;;;;;;;;;;;;;;4992169;28;19975;-74
2023/08/22 14:41:27;;;;;;;;;;;;;;;;;;4992084;28;20000;-77
2023/08/22 14:43:53;;;;;;;;;;;;;;;;;;4974580;28;19912;-77
2023/08/22 14:46:19;;;;;;;;;;;;;;;;;;4992328;28;20225;-76
2023/08/22 14:48:45;;;;;;;;;;;;;;;;;;4991812;28;19905;-77
2023/08/22 14:51:11;;;;;;;;;;;;;;;;;;4993362;28;19921;-75
2023/08/22 14:53:37;;;;;;;;;;;;;;;;;;4993637;28;19944;-76
2023/08/22 14:56:03;;;;;;;;;;;;;;;;;;4992695;28;20425;-74
2023/08/22 14:58:29;;;;;;;;;;;;;;;;;;4991512;28;19910;-74
2023/08/22 15:00:55;;;;;;;;;;;;;;;;;;4993911;28;20408;-76
2023/08/22 15:03:21;;;;;;;;;;;;;;;;;;4991508;28;19910;-76
2023/08/22 15:05:47;;;;;;;;;;;;;;;;;;4992152;28;19906;-76
2023/08/22 15:08:13;;;;;;;;;;;;;;;;;;4973797;28;20292;-76
2023/08/22 15:10:39;;;;;;;;;;;;;;;;;;4998522;28;19940;-76
2023/08/22 15:13:04;;;;;;;;;;;;;;;;;;4999404;28;19968;-76
2023/08/22 15:15:30;;;;;;;;;;;;;;;;;;5006186;28;19913;-77
2023/08/22 15:17:56;;;;;;;;;;;;;;;;;;5011399;28;19906;-77
2023/08/22 15:20:22;;;;;;;;;;;;;;;;;;4992044;28;20349;-75
2023/08/22 15:22:48;;;;;;;;;;;;;;;;;;4974281;28;19913;-76
2023/08/22 15:25:14;;;;;;;;;;;;;;;;;;4993251;28;19902;-76
2023/08/22 15:27:40;;;;;;;;;;;;;;;;;;5000639;28;19905;-75
2023/08/22 15:30:06;;;;;;;;;;;;;;;;;;5014511;28;19905;-76
2023/08/22 15:32:32;;;;;;;;;;;;;;;;;;5015686;28;19905;-76
2023/08/22 15:34:58;;;;;;;;;;;;;;;;;;5015128;28;20321;-76
2023/08/22 15:37:23;;;;;;;;;;;;;;;;;;5012842;28;19929;-77
2023/08/22 15:39:49;;;;;;;;;;;;;;;;;;5013580;28;19906;-77
2023/08/22 15:42:15;;;;;;;;;;;;;;;;;;5012371;28;19914;-77
2023/08/22 15:44:41;;;;;;;;;;;;;;;;;;5006131;28;19909;-76
2023/08/22 15:47:07;;;;;;;;;;;;;;;;;;4988584;28;20356;-75
2023/08/22 15:49:33;;;;;;;;;;;;;;;;;;4977948;28;19906;-77
2023/08/22 15:51:59;;;;;;;;;;;;;;;;;;5008546;28;19916;-76
2023/08/22 15:54:25;;;;;;;;;;;;;;;;;;5014836;28;20635;-77
2023/08/22 15:56:51;;;;;;;;;;;;;;;;;;5014913;28;19928;-76
2023/08/22 15:59:17;;;;;;;;;;;;;;;;;;5017066;28;19972;-77
2023/08/22 16:01:42;;;;;;;;;;;;;;;;;;5015371;28;20408;-75
2023/08/22 16:04:08;;;;;;;;;;;;;;;;;;5014340;28;19909;-75
2023/08/22 16:06:34;;;;;;;;;;;;;;;;;;5014186;28;19911;-76
2023/08/22 16:09:00;;;;;;;;;;;;;;;;;;5014040;28;19901;-76
2023/08/22 16:11:26;;;;;;;;;;;;;;;;;;5014547;28;19909;-76
2023/08/22 16:13:52;;;;;;;;;;;;;;;;;;5018415;28;19981;-77
2023/08/22 16:16:18;;;;;;;;;;;;;;;;;;5014568;28;20253;-78
2023/08/22 16:18:44;;;;;;;;;;;;;;;;;;5008076;28;20403;-78
2023/08/22 16:21:10;;;;;;;;;;;;;;;;;;5014087;28;19905;-78